Time;durP1;ratioP1;P1;durP2;ratioP2;P2;SDS_P1;SDS_P2;PMS_P1;PMS_P2;Temp;Humidity;BMP_temperature;BMP_pressure;BME280_temperature;BME280_humidity;BME280_pressure;Samples;Min_cycle;Max_cycle;Signal;HPM_P1;HPM_P2
2023/10/08 00:01:19;;;;;;;2.53;1.90;;;11.30;99.90;;;;;;4990217;28;20443;-70
2023/10/08 00:03:53;;;;;;;2.57;1.60;;;11.30;99.90;;;;;;5012429;28;20465;-70
2023/10/08 00:06:21;;;;;;;6.77;2.30;;;11.30;99.90;;;;;;5010266;28;20952;-71
2023/10/08 00:08:47;;;;;;;2.57;2.10;;;11.30;99.90;;;;;;4996613;28;20435;-70
2023/10/08 00:11:15;;;;;;;3.60;2.00;;;11.40;99.90;;;;;;5013944;28;20423;-70
2023/10/08 00:13:41;;;;;;;10.67;3.80;;;11.40;99.90;;;;;;5011335;28;20491;-70
2023/10/08 00:16:11;;;;;;;8.13;2.43;;;11.30;99.90;;;;;;5011623;28;20498;-70
2023/10/08 00:18:40;;;;;;;3.83;1.70;;;11.30;99.90;;;;;;5013196;28;20423;-70
2023/10/08 00:23:41;;;;;;;4.97;1.93;;;11.30;99.90;;;;;;5005442;28;20427;-70
2023/10/08 00:26:07;;;;;;;4.10;2.10;;;11.30;99.90;;;;;;5013465;28;20420;-70
2023/10/08 00:28:33;;;;;;;8.50;2.57;;;11.30;99.90;;;;;;5013466;28;20897;-70
2023/10/08 00:31:12;;;;;;;6.07;1.93;;;11.30;99.90;;;;;;5028016;23;20427;-73
2023/10/08 00:33:44;;;;;;;3.80;2.40;;;11.30;99.90;;;;;;4977319;28;20272;-72
2023/10/08 00:36:19;;;;;;;2.47;1.70;;;11.30;99.90;;;;;;4997234;28;20958;-72
2023/10/08 00:38:55;;;;;;;3.13;1.77;;;11.30;99.90;;;;;;5003097;28;20574;-73
2023/10/08 00:41:28;;;;;;;4.00;2.40;;;11.30;99.90;;;;;;4995838;28;20444;-73
2023/10/08 00:43:56;;;;;;;4.00;2.00;;;11.30;99.90;;;;;;5010560;28;20415;-73
2023/10/08 00:46:30;;;;;;;4.57;2.67;;;11.20;99.90;;;;;;5005800;28;20505;-73
2023/10/08 00:48:57;;;;;;;8.27;2.27;;;11.20;99.90;;;;;;5004758;28;20797;-74
2023/10/08 00:54:08;;;;;;;6.80;2.70;;;11.30;99.90;;;;;;5011866;28;20455;-74
2023/10/08 00:59:46;;;;;;;3.53;2.07;;;11.20;99.90;;;;;;4985814;28;20403;-75
2023/10/08 01:02:15;;;;;;;3.30;2.83;;;11.20;99.90;;;;;;4993978;28;20440;-74
2023/10/08 01:04:43;;;;;;;3.77;2.33;;;11.20;99.90;;;;;;5001097;28;20420;-74
2023/10/08 01:07:15;;;;;;;3.97;1.90;;;11.20;99.90;;;;;;4996621;28;20498;-73
2023/10/08 01:09:42;;;;;;;6.23;2.20;;;11.20;99.90;;;;;;4997647;28;20459;-73
2023/10/08 01:12:15;;;;;;;5.93;3.20;;;11.20;99.90;;;;;;5009147;28;20591;-73
2023/10/08 01:14:42;;;;;;;4.30;1.90;;;11.10;99.90;;;;;;5000819;28;20471;-73
2023/10/08 01:17:16;;;;;;;7.30;3.30;;;11.20;99.90;;;;;;4996363;28;20419;-75
2023/10/08 01:19:50;;;;;;;8.83;2.70;;;11.20;99.90;;;;;;5012323;28;20958;-74
2023/10/08 01:22:18;;;;;;;5.60;3.07;;;11.20;99.90;;;;;;4998125;28;20438;-74
2023/10/08 01:24:48;;;;;;;12.00;3.73;;;11.20;99.90;;;;;;5012190;28;20499;-74
2023/10/08 01:27:20;;;;;;;4.20;2.40;;;11.10;99.90;;;;;;5013022;28;20783;-73
2023/10/08 01:29:46;;;;;;;5.10;2.40;;;11.10;99.90;;;;;;5011267;28;20978;-73
2023/10/08 01:32:16;;;;;;;9.93;3.30;;;11.10;99.90;;;;;;5011585;28;20495;-72
2023/10/08 01:34:45;;;;;;;4.53;2.27;;;11.10;99.90;;;;;;5007499;28;20467;-72
2023/10/08 01:37:12;;;;;;;11.83;3.87;;;11.10;99.90;;;;;;4996776;28;20411;-72
2023/10/08 01:39:42;;;;;;;7.50;3.30;;;11.10;99.90;;;;;;5004216;28;20497;-71
2023/10/08 01:42:16;;;;;;;8.70;2.73;;;11.10;99.90;;;;;;5011131;28;20949;-72
2023/10/08 01:44:45;;;;;;;4.70;2.80;;;11.10;99.90;;;;;;5011467;28;20415;-72
2023/10/08 01:47:11;;;;;;;9.13;2.87;;;11.00;99.90;;;;;;5011615;28;20419;-72
2023/10/08 01:49:39;;;;;;;5.53;3.13;;;11.00;99.90;;;;;;5011467;28;20415;-72
2023/10/08 01:52:07;;;;;;;6.10;2.60;;;11.00;99.90;;;;;;5011049;28;20960;-72
2023/10/08 01:54:35;;;;;;;6.47;2.60;;;11.00;99.90;;;;;;5003824;28;20486;-72
2023/10/08 01:57:02;;;;;;;5.03;3.00;;;11.00;99.90;;;;;;5011735;28;20426;-72
2023/10/08 01:59:31;;;;;;;6.30;2.50;;;11.00;99.90;;;;;;5011319;28;20426;-72
2023/10/08 02:01:57;;;;;;;6.00;2.50;;;11.00;99.90;;;;;;5011483;28;20574;-73
2023/10/08 02:04:23;;;;;;;5.20;2.90;;;11.00;99.90;;;;;;5010312;28;20454;-73
2023/10/08 02:06:48;;;;;;;5.10;3.77;;;11.10;99.90;;;;;;5011674;28;20411;-73
2023/10/08 02:09:15;;;;;;;6.00;2.53;;;11.10;99.90;;;;;;5011411;28;20179;-73
2023/10/08 02:11:45;;;;;;;5.27;2.63;;;11.00;99.90;;;;;;5011309;28;20231;-74
2023/10/08 02:14:12;;;;;;;7.70;3.40;;;11.10;99.90;;;;;;4995038;28;20502;-73
2023/10/08 02:16:38;;;;;;;4.83;2.73;;;11.00;99.90;;;;;;5011392;28;20408;-74
2023/10/08 02:19:04;;;;;;;9.30;4.13;;;11.10;99.90;;;;;;5011089;28;20423;-74
2023/10/08 02:21:31;;;;;;;7.10;3.10;;;11.10;99.90;;;;;;5011039;28;21024;-74
2023/10/08 02:23:56;;;;;;;5.70;3.53;;;11.10;99.90;;;;;;5010371;28;20589;-74
2023/10/08 02:26:23;;;;;;;6.90;3.23;;;11.10;99.90;;;;;;5010952;28;20423;-74
2023/10/08 02:28:50;;;;;;;6.80;3.50;;;11.10;99.90;;;;;;5009389;28;20180;-74
2023/10/08 02:31:18;;;;;;;4.40;3.33;;;11.10;99.90;;;;;;4997691;28;20893;-74
2023/10/08 02:33:44;;;;;;;10.13;2.87;;;11.10;99.90;;;;;;5009323;28;20423;-73
2023/10/08 02:36:09;;;;;;;5.83;3.17;;;11.10;99.90;;;;;;5010816;28;20470;-72
2023/10/08 02:38:37;;;;;;;5.77;4.03;;;11.10;99.90;;;;;;5001740;28;20415;-71
2023/10/08 02:41:06;;;;;;;10.63;4.10;;;11.10;99.90;;;;;;5010351;28;20929;-72
2023/10/08 02:43:34;;;;;;;10.57;3.83;;;11.10;99.90;;;;;;5013984;28;20419;-72
2023/10/08 02:46:00;;;;;;;8.20;4.40;;;11.00;99.90;;;;;;5013747;28;20427;-72
2023/10/08 02:48:27;;;;;;;5.17;3.70;;;11.10;99.90;;;;;;5014396;28;20425;-72
2023/10/08 02:50:54;;;;;;;7.23;3.67;;;11.10;99.90;;;;;;5007604;28;20943;-72
2023/10/08 02:53:23;;;;;;;6.70;4.00;;;11.10;99.90;;;;;;5014592;28;20430;-72
2023/10/08 02:55:50;;;;;;;12.93;4.20;;;11.10;99.90;;;;;;5013357;28;20455;-71
2023/10/08 02:58:18;;;;;;;8.70;5.10;;;11.00;99.90;;;;;;5014088;28;20415;-71
2023/10/08 03:00:46;;;;;;;8.60;3.93;;;11.00;99.90;;;;;;5014249;28;20430;-72
2023/10/08 03:03:16;;;;;;;8.63;3.93;;;11.00;99.90;;;;;;5013641;28;20423;-72
2023/10/08 03:05:48;;;;;;;9.37;4.13;;;11.00;99.90;;;;;;5013984;28;20806;-73
2023/10/08 03:08:19;;;;;;;7.87;4.13;;;11.00;99.90;;;;;;5004897;28;20811;-71
2023/10/08 03:10:45;;;;;;;6.10;4.77;;;11.00;99.90;;;;;;5010506;28;20801;-70
2023/10/08 03:13:12;;;;;;;13.93;5.03;;;11.00;99.90;;;;;;5014419;28;20431;-71
2023/10/08 03:15:46;;;;;;;7.40;4.37;;;11.00;99.90;;;;;;5014500;28;20459;-71
2023/10/08 03:18:14;;;;;;;8.20;3.53;;;11.00;99.90;;;;;;5009460;28;20451;-71
2023/10/08 03:20:46;;;;;;;10.40;6.00;;;11.00;99.90;;;;;;5009182;28;20428;-71
2023/10/08 03:23:34;;;;;;;8.67;4.30;;;11.00;99.90;;;;;;5013689;28;20434;-72
2023/10/08 03:26:10;;;;;;;9.03;4.53;;;11.00;99.90;;;;;;5005417;28;20792;-72
2023/10/08 03:28:37;;;;;;;7.73;4.00;;;11.00;99.90;;;;;;5013710;28;20411;-72
2023/10/08 03:31:14;;;;;;;6.23;3.70;;;10.90;99.90;;;;;;5013395;28;20463;-72
2023/10/08 03:33:39;;;;;;;6.93;4.10;;;10.90;99.90;;;;;;5013471;28;20502;-71
2023/10/08 03:36:14;;;;;;;15.13;4.03;;;10.90;99.90;;;;;;5011990;28;21003;-72
2023/10/08 03:38:44;;;;;;;5.17;3.53;;;10.90;99.90;;;;;;5004019;28;20630;-72
2023/10/08 03:41:16;;;;;;;8.23;3.80;;;10.90;99.90;;;;;;5013454;28;20493;-72
2023/10/08 03:44:05;;;;;;;7.10;3.60;;;10.90;99.90;;;;;;5013323;28;20407;-73
2023/10/08 03:46:29;;;;;;;9.97;4.90;;;10.90;99.90;;;;;;5006711;28;20970;-72
2023/10/08 03:48:57;;;;;;;6.53;3.80;;;10.80;99.90;;;;;;5011707;28;20419;-72
2023/10/08 03:51:27;;;;;;;6.40;3.80;;;10.80;99.90;;;;;;5005916;28;20772;-72
2023/10/08 03:53:59;;;;;;;9.83;4.53;;;10.80;99.90;;;;;;5013120;28;20434;-72
2023/10/08 03:56:29;;;;;;;7.73;3.40;;;10.80;99.90;;;;;;5013758;28;20483;-72
2023/10/08 03:58:55;;;;;;;8.70;3.90;;;10.80;99.90;;;;;;5013667;28;20788;-72
2023/10/08 04:01:21;;;;;;;11.17;4.77;;;10.80;99.90;;;;;;5013747;28;20439;-73
2023/10/08 04:06:28;;;;;;;8.67;4.40;;;10.80;99.90;;;;;;5013839;28;20422;-72
2023/10/08 04:11:36;;;;;;;7.50;3.43;;;10.70;99.90;;;;;;4997254;28;20754;-73
2023/10/08 04:14:04;;;;;;;5.30;2.80;;;10.70;99.90;;;;;;5003794;28;20902;-73
2023/10/08 04:16:32;;;;;;;9.80;4.10;;;10.70;99.90;;;;;;5005971;28;20458;-73
2023/10/08 04:19:03;;;;;;;8.23;4.03;;;10.60;99.90;;;;;;5003656;28;20427;-72
2023/10/08 04:21:29;;;;;;;4.50;3.20;;;10.60;99.90;;;;;;5002182;28;20462;-72
2023/10/08 04:23:57;;;;;;;8.57;3.60;;;10.60;99.90;;;;;;5001923;28;20910;-72
2023/10/08 04:26:24;;;;;;;6.33;4.03;;;10.60;99.90;;;;;;4999417;28;20897;-73
2023/10/08 04:29:06;;;;;;;10.40;3.53;;;10.60;99.90;;;;;;5005219;28;20871;-73
2023/10/08 04:31:46;;;;;;;7.40;3.30;;;10.60;99.90;;;;;;4995632;28;20857;-73
2023/10/08 04:34:22;;;;;;;9.63;3.83;;;10.60;99.90;;;;;;5003841;28;20408;-73
2023/10/08 04:36:54;;;;;;;9.77;4.27;;;10.60;99.90;;;;;;5005109;28;20642;-72
2023/10/08 04:39:26;;;;;;;4.93;4.43;;;10.60;99.90;;;;;;4993640;28;20823;-73
2023/10/08 04:41:58;;;;;;;8.50;4.17;;;10.60;99.90;;;;;;5000004;28;20861;-72
2023/10/08 04:44:25;;;;;;;10.20;3.80;;;10.60;99.90;;;;;;4997578;28;20777;-73
2023/10/08 04:46:52;;;;;;;6.37;4.40;;;10.50;99.90;;;;;;5005191;28;20502;-74
2023/10/08 04:49:27;;;;;;;6.97;3.80;;;10.50;99.90;;;;;;5012744;28;20407;-74
2023/10/08 04:51:57;;;;;;;8.83;4.40;;;10.40;99.90;;;;;;5012802;28;20431;-75
2023/10/08 04:54:32;;;;;;;7.60;3.77;;;10.40;99.90;;;;;;4997305;28;20831;-75
2023/10/08 04:57:04;;;;;;;8.87;3.57;;;10.40;99.90;;;;;;5011610;28;20477;-72
2023/10/08 04:59:33;;;;;;;8.03;4.33;;;10.30;99.90;;;;;;5012970;28;20411;-74
2023/10/08 05:02:33;;;;;;;5.43;3.37;;;10.30;99.90;;;;;;5008065;28;20525;-74
2023/10/08 05:08:00;;;;;;;10.80;5.00;;;10.20;99.90;;;;;;4997040;28;20473;-74
2023/10/08 05:13:32;;;;;;;6.93;4.77;;;10.10;99.90;;;;;;5012240;28;20951;-74
2023/10/08 05:28:46;;;;;;;11.37;3.90;;;10.00;99.90;;;;;;5012940;28;20922;-73
2023/10/08 05:42:12;;;;;;;7.47;3.87;;;10.00;99.90;;;;;;5005226;28;20516;-74
2023/10/08 05:44:40;;;;;;;14.00;4.90;;;10.00;99.90;;;;;;5006126;28;20457;-73
2023/10/08 06:13:09;;;;;;;11.30;4.70;;;10.40;99.90;;;;;;5008696;28;20435;-72
2023/10/08 06:15:49;;;;;;;7.83;4.33;;;10.40;99.90;;;;;;5008054;28;20465;-73
2023/10/08 06:18:16;;;;;;;6.00;3.10;;;10.40;99.90;;;;;;5014001;28;20446;-73
2023/10/08 06:20:45;;;;;;;7.50;4.40;;;10.50;99.90;;;;;;5008930;28;20519;-74
2023/10/08 06:23:18;;;;;;;7.17;4.10;;;10.70;99.90;;;;;;5002099;28;20494;-73
2023/10/08 06:25:47;;;;;;;7.30;4.40;;;10.80;99.90;;;;;;5011673;28;20956;-72
2023/10/08 06:28:21;;;;;;;6.00;3.77;;;10.90;99.90;;;;;;5002870;28;20432;-73
2023/10/08 06:30:48;;;;;;;8.30;3.60;;;11.10;99.90;;;;;;5012299;28;20494;-73
2023/10/08 06:33:14;;;;;;;13.10;4.40;;;11.10;99.90;;;;;;5012105;28;20431;-74
2023/10/08 06:36:01;;;;;;;6.10;3.90;;;11.10;99.90;;;;;;5011651;28;20454;-74
2023/10/08 06:38:30;;;;;;;4.60;2.90;;;11.10;99.90;;;;;;4995347;28;20413;-73
2023/10/08 06:43:37;;;;;;;5.47;3.20;;;11.20;99.90;;;;;;5011764;28;20837;-72
2023/10/08 06:46:07;;;;;;;5.87;3.17;;;11.60;99.90;;;;;;5007767;28;20997;-74
2023/10/08 06:48:34;;;;;;;6.27;3.30;;;12.00;99.90;;;;;;5010643;28;20433;-73
2023/10/08 06:51:12;;;;;;;4.63;2.07;;;12.10;99.90;;;;;;5011844;28;20418;-73
2023/10/08 06:53:42;;;;;;;4.83;2.30;;;12.70;99.90;;;;;;5011586;28;20415;-71
2023/10/08 06:56:11;;;;;;;3.67;1.97;;;13.10;99.90;;;;;;5009092;28;20539;-72
2023/10/08 06:58:37;;;;;;;8.03;2.00;;;13.00;99.90;;;;;;5011681;28;20407;-73
2023/10/08 07:01:08;;;;;;;6.20;2.93;;;13.00;99.90;;;;;;5011290;28;20431;-74
2023/10/08 07:03:35;;;;;;;5.00;1.97;;;13.00;99.90;;;;;;5010982;28;20176;-72
2023/10/08 07:06:02;;;;;;;3.50;1.80;;;13.70;99.90;;;;;;5008516;28;20419;-71
2023/10/08 07:08:32;;;;;;;6.53;3.33;;;14.00;99.90;;;;;;4995614;28;20434;-72
2023/10/08 07:11:01;;;;;;;4.53;1.90;;;14.20;99.90;;;;;;5014938;28;20414;-72
2023/10/08 07:13:29;;;;;;;2.20;1.63;;;14.60;99.90;;;;;;5014889;28;20416;-73
2023/10/08 07:15:55;;;;;;;3.90;2.00;;;14.70;99.90;;;;;;5014601;28;20478;-73
2023/10/08 07:18:25;;;;;;;3.77;2.10;;;15.40;99.90;;;;;;5015344;28;20422;-73
2023/10/08 07:20:55;;;;;;;2.97;2.53;;;16.00;99.90;;;;;;5014602;28;20505;-72
2023/10/08 07:23:25;;;;;;;2.13;1.50;;;15.90;99.90;;;;;;5007244;28;20973;-72
2023/10/08 07:25:58;;;;;;;3.23;1.90;;;14.80;99.90;;;;;;5004923;28;20433;-72
2023/10/08 07:28:25;;;;;;;3.33;2.13;;;15.30;99.90;;;;;;5010239;28;20434;-73
2023/10/08 07:30:52;;;;;;;2.30;1.73;;;15.90;99.90;;;;;;5006598;28;20414;-75
2023/10/08 07:33:18;;;;;;;5.37;1.70;;;15.80;99.90;;;;;;5007938;28;20445;-73
2023/10/08 07:35:57;;;;;;;3.30;1.87;;;16.20;99.90;;;;;;5009707;28;20493;-71
2023/10/08 07:38:27;;;;;;;2.43;1.30;;;16.60;99.90;;;;;;5009890;28;20902;-76
2023/10/08 07:40:55;;;;;;;2.30;1.37;;;16.80;99.90;;;;;;5005104;28;20859;-76
2023/10/08 07:43:21;;;;;;;3.03;2.73;;;17.40;99.90;;;;;;5007106;28;20473;-74
2023/10/08 07:45:46;;;;;;;2.40;1.67;;;18.20;99.90;;;;;;5009658;28;20418;-72
2023/10/08 07:48:13;;;;;;;3.77;1.30;;;17.60;99.90;;;;;;5008993;28;20741;-72
2023/10/08 07:50:45;;;;;;;2.20;1.40;;;17.60;99.90;;;;;;5007496;28;20164;-74
2023/10/08 07:53:17;;;;;;;3.73;3.07;;;17.00;99.90;;;;;;5006225;28;20507;-74
2023/10/08 07:55:45;;;;;;;1.33;1.23;;;15.80;99.90;;;;;;5009152;28;20458;-74
2023/10/08 07:58:11;;;;;;;2.53;1.30;;;15.40;99.90;;;;;;5009030;28;20542;-75
2023/10/08 08:00:38;;;;;;;2.70;1.40;;;15.60;99.90;;;;;;5007918;28;20446;-77
2023/10/08 08:03:07;;;;;;;1.93;1.53;;;16.80;99.90;;;;;;5006014;28;20184;-73
2023/10/08 08:05:34;;;;;;;2.50;1.50;;;16.30;99.90;;;;;;5008573;28;20500;-74
2023/10/08 08:08:05;;;;;;;1.97;1.30;;;16.00;99.90;;;;;;5008773;28;20410;-76
2023/10/08 08:10:36;;;;;;;2.10;1.50;;;16.90;99.90;;;;;;5008200;28;20446;-74
2023/10/08 08:13:05;;;;;;;3.20;1.47;;;18.50;99.90;;;;;;5005178;28;20439;-74
2023/10/08 08:15:33;;;;;;;2.53;2.27;;;18.10;99.90;;;;;;5000502;28;20453;-75
2023/10/08 08:17:58;;;;;;;3.33;1.30;;;18.60;99.90;;;;;;5000141;28;20456;-74
2023/10/08 08:20:34;;;;;;;1.80;1.27;;;18.30;99.90;;;;;;5006594;28;20446;-75
2023/10/08 08:23:06;;;;;;;5.23;1.20;;;18.50;99.90;;;;;;4995351;28;20284;-73
2023/10/08 08:25:46;;;;;;;2.27;1.30;;;19.40;99.90;;;;;;5003414;28;20403;-74
2023/10/08 08:28:20;;;;;;;1.80;1.10;;;19.40;99.90;;;;;;5002319;28;20451;-74
2023/10/08 08:30:48;;;;;;;1.83;1.30;;;19.90;99.90;;;;;;5005799;28;20421;-74
2023/10/08 08:33:22;;;;;;;2.17;1.13;;;18.30;99.90;;;;;;5003349;28;20511;-73
2023/10/08 08:35:59;;;;;;;2.40;1.23;;;18.50;99.90;;;;;;5008361;28;20489;-74
2023/10/08 08:38:25;;;;;;;2.13;1.30;;;18.60;99.90;;;;;;5008435;28;20419;-72
2023/10/08 08:40:51;;;;;;;2.80;1.23;;;18.40;99.90;;;;;;4997713;28;20771;-71
2023/10/08 08:43:18;;;;;;;3.23;1.57;;;18.40;99.90;;;;;;5005590;28;20640;-73
2023/10/08 08:45:47;;;;;;;3.10;1.30;;;17.90;99.90;;;;;;5008588;28;20913;-71
2023/10/08 08:48:17;;;;;;;1.73;1.60;;;18.30;99.90;;;;;;5007904;28;20445;-72
2023/10/08 08:50:44;;;;;;;1.27;1.17;;;18.40;99.90;;;;;;5007082;28;20423;-73
2023/10/08 08:53:09;;;;;;;1.47;1.30;;;18.70;99.90;;;;;;5012839;28;20525;-74
2023/10/08 08:55:35;;;;;;;1.63;1.00;;;18.60;99.90;;;;;;5005395;28;20554;-72
2023/10/08 08:58:04;;;;;;;1.23;0.70;;;19.20;99.90;;;;;;5006601;28;20168;-70
2023/10/08 09:00:30;;;;;;;1.37;0.93;;;19.30;99.90;;;;;;5013641;28;20172;-72
2023/10/08 09:02:56;;;;;;;1.40;1.00;;;20.90;99.90;;;;;;5013410;28;20445;-75
2023/10/08 09:05:34;;;;;;;2.80;1.20;;;20.80;99.90;;;;;;5013704;28;20419;-75
2023/10/08 09:08:04;;;;;;;1.60;1.30;;;19.80;99.90;;;;;;5014244;28;20474;-74
2023/10/08 09:10:36;;;;;;;1.80;1.50;;;18.40;99.90;;;;;;5002755;28;20430;-72
2023/10/08 09:13:07;;;;;;;1.33;1.20;;;17.80;99.90;;;;;;4994850;28;20456;-72
2023/10/08 09:15:33;;;;;;;1.60;1.07;;;17.30;99.90;;;;;;4997293;28;20886;-73
2023/10/08 09:18:06;;;;;;;3.33;1.27;;;17.50;99.90;;;;;;4984354;28;20444;-72
2023/10/08 09:20:42;;;;;;;1.73;1.00;;;17.00;99.90;;;;;;4991369;28;20173;-72
2023/10/08 09:23:17;;;;;;;2.40;1.97;;;17.90;99.90;;;;;;4973694;28;20455;-69
2023/10/08 09:25:45;;;;;;;1.77;1.00;;;18.30;99.90;;;;;;4987538;28;20519;-73
2023/10/08 09:28:14;;;;;;;1.60;1.10;;;18.50;99.90;;;;;;4999738;28;20508;-71
2023/10/08 09:30:41;;;;;;;1.70;1.23;;;18.20;99.90;;;;;;4986170;28;20439;-72
2023/10/08 09:33:07;;;;;;;2.53;1.90;;;17.70;99.90;;;;;;4990797;28;20461;-73
2023/10/08 09:35:34;;;;;;;1.97;1.30;;;16.70;99.90;;;;;;5000315;28;20581;-73
2023/10/08 09:38:22;;;;;;;1.50;1.10;;;16.10;99.90;;;;;;5000625;28;20433;-74
2023/10/08 09:40:48;;;;;;;1.17;0.87;;;16.30;99.90;;;;;;4988275;28;20492;-72
2023/10/08 09:43:16;;;;;;;1.70;0.90;;;16.80;99.90;;;;;;4985371;28;20848;-72
2023/10/08 09:45:57;;;;;;;1.30;1.20;;;16.10;99.90;;;;;;4993733;28;20413;-74
2023/10/08 09:48:27;;;;;;;1.50;1.03;;;15.40;99.90;;;;;;4991055;28;20419;-73
2023/10/08 09:50:55;;;;;;;1.30;1.13;;;15.40;99.90;;;;;;4999876;28;20429;-74
2023/10/08 09:53:31;;;;;;;1.93;1.00;;;15.50;99.90;;;;;;4998038;28;20425;-73
2023/10/08 09:55:58;;;;;;;1.10;1.00;;;15.80;99.90;;;;;;5001464;28;20450;-74
2023/10/08 09:58:27;;;;;;;1.33;1.23;;;15.90;99.90;;;;;;5000372;28;20424;-75
2023/10/08 10:00:56;;;;;;;1.40;1.10;;;15.70;99.90;;;;;;4998352;28;20420;-73
2023/10/08 10:03:25;;;;;;;1.27;1.03;;;15.40;99.90;;;;;;4997325;28;21061;-73
2023/10/08 10:05:51;;;;;;;1.10;1.00;;;15.50;99.90;;;;;;4999365;28;20421;-74
2023/10/08 10:08:17;;;;;;;2.13;1.20;;;15.30;99.90;;;;;;4993615;28;20440;-76
2023/10/08 10:10:47;;;;;;;2.50;0.97;;;15.00;99.90;;;;;;5000176;28;20425;-76
2023/10/08 10:13:15;;;;;;;1.83;0.90;;;14.80;99.90;;;;;;4994208;28;20446;-71
2023/10/08 10:15:42;;;;;;;1.70;1.00;;;14.70;99.90;;;;;;5000758;28;20466;-74
2023/10/08 10:18:13;;;;;;;1.10;0.97;;;14.80;99.90;;;;;;4994967;28;20451;-75
2023/10/08 10:20:45;;;;;;;1.73;0.90;;;14.60;99.90;;;;;;4999964;28;20459;-74
2023/10/08 10:23:44;;;;;;;1.63;1.00;;;14.40;99.90;;;;;;4985046;28;20430;-73
2023/10/08 10:26:30;;;;;;;5.67;1.00;;;14.70;99.90;;;;;;4988940;28;20530;-73
2023/10/08 10:29:11;;;;;;;1.00;0.90;;;14.20;99.90;;;;;;4998462;28;20797;-73
2023/10/08 10:31:46;;;;;;;2.20;1.17;;;14.20;99.90;;;;;;5000891;28;21017;-73
2023/10/08 10:34:15;;;;;;;1.40;0.97;;;14.50;99.90;;;;;;5000141;28;20451;-73
2023/10/08 10:36:43;;;;;;;1.47;0.97;;;14.60;99.90;;;;;;4998386;28;20486;-72
2023/10/08 10:39:28;;;;;;;1.07;0.80;;;14.30;99.90;;;;;;4995083;28;20412;-72
2023/10/08 10:42:01;;;;;;;0.90;0.70;;;14.10;99.90;;;;;;4999832;28;20436;-73
2023/10/08 10:44:29;;;;;;;1.43;0.93;;;14.20;99.90;;;;;;4999399;28;20427;-74
2023/10/08 10:47:42;;;;;;;0.90;0.80;;;14.30;99.90;;;;;;4997180;28;20830;-74
2023/10/08 10:52:31;;;;;;;2.03;1.13;;;14.40;99.90;;;;;;4998616;28;20945;-74
2023/10/08 10:55:18;;;;;;;1.43;1.10;;;14.30;99.90;;;;;;4996569;28;20552;-75
2023/10/08 10:57:55;;;;;;;3.93;1.10;;;14.50;99.90;;;;;;4984335;28;20400;-73
2023/10/08 11:03:02;;;;;;;2.63;0.90;;;14.60;99.90;;;;;;4997684;28;20439;-72
2023/10/08 11:05:29;;;;;;;0.93;0.83;;;14.60;99.90;;;;;;5000170;28;20428;-72
2023/10/08 11:08:04;;;;;;;2.93;1.10;;;14.60;99.90;;;;;;5001733;28;20860;-75
2023/10/08 11:10:49;;;;;;;1.10;1.00;;;14.50;99.90;;;;;;5001611;28;20419;-72
2023/10/08 11:13:15;;;;;;;1.47;0.90;;;14.40;99.90;;;;;;4994328;28;20906;-72
2023/10/08 11:15:42;;;;;;;1.70;0.90;;;14.30;99.90;;;;;;5001326;28;21305;-73
2023/10/08 11:18:10;;;;;;;1.10;1.00;;;14.20;99.90;;;;;;4998065;28;20699;-73
2023/10/08 11:20:44;;;;;;;3.90;1.60;;;14.30;96.80;;;;;;5000593;28;20423;-72
2023/10/08 11:23:37;;;;;;;2.03;1.17;;;14.40;98.00;;;;;;4979922;28;20915;-73
2023/10/08 11:26:05;;;;;;;1.40;1.00;;;14.50;98.50;;;;;;4996133;28;20426;-72
2023/10/08 11:28:41;;;;;;;1.97;1.17;;;14.40;99.90;;;;;;4992223;28;20414;-72
2023/10/08 11:31:11;;;;;;;1.10;0.83;;;14.80;99.90;;;;;;4992982;28;21317;-73
2023/10/08 11:33:38;;;;;;;1.70;1.40;;;15.10;99.90;;;;;;5002180;28;20426;-72
2023/10/08 11:36:18;;;;;;;1.53;1.10;;;15.30;99.90;;;;;;5001930;28;21042;-73
2023/10/08 11:38:48;;;;;;;1.10;0.80;;;15.20;99.90;;;;;;5001401;28;20485;-75
2023/10/08 11:41:21;;;;;;;0.90;0.80;;;15.10;99.90;;;;;;5010098;28;20526;-74
2023/10/08 11:43:53;;;;;;;4.77;1.40;;;14.70;99.90;;;;;;4994950;28;20411;-72
2023/10/08 11:46:33;;;;;;;1.37;1.10;;;14.80;99.90;;;;;;5001479;28;20419;-72
2023/10/08 11:49:04;;;;;;;1.47;0.90;;;14.90;99.90;;;;;;5003602;28;20423;-73
2023/10/08 11:51:32;;;;;;;0.97;0.87;;;15.00;99.90;;;;;;5000185;28;20439;-74
2023/10/08 11:53:58;;;;;;;1.03;0.83;;;15.10;99.90;;;;;;5002257;28;20419;-73
2023/10/08 11:56:24;;;;;;;1.03;0.80;;;14.90;99.90;;;;;;5001140;28;20554;-74
2023/10/08 11:58:51;;;;;;;1.80;1.00;;;15.00;99.90;;;;;;5000287;28;20448;-73
2023/10/08 12:01:17;;;;;;;1.87;1.40;;;15.20;99.90;;;;;;4998912;28;20208;-72
2023/10/08 12:03:49;;;;;;;2.30;0.93;;;15.30;99.90;;;;;;5001574;28;20412;-72
2023/10/08 12:06:15;;;;;;;1.83;1.00;;;15.10;99.70;;;;;;5001976;28;20414;-72
2023/10/08 12:08:46;;;;;;;2.20;1.03;;;15.20;99.90;;;;;;5002282;28;20412;-73
2023/10/08 12:11:15;;;;;;;1.43;1.00;;;15.70;99.90;;;;;;4993927;28;20196;-72
2023/10/08 12:13:44;;;;;;;2.30;1.17;;;15.80;99.90;;;;;;5000328;28;20421;-73
2023/10/08 12:16:18;;;;;;;1.90;1.27;;;15.70;99.50;;;;;;5001204;28;20468;-74
2023/10/08 12:18:58;;;;;;;1.50;1.00;;;15.60;98.70;;;;;;4994235;28;20776;-74
2023/10/08 12:21:24;;;;;;;1.33;1.23;;;15.30;99.20;;;;;;4994624;28;20518;-73
2023/10/08 12:23:51;;;;;;;3.70;1.57;;;15.10;99.90;;;;;;5000970;28;20524;-74
2023/10/08 12:26:18;;;;;;;2.80;1.10;;;15.40;99.90;;;;;;5000422;28;20897;-73
2023/10/08 12:28:45;;;;;;;0.87;0.80;;;15.40;99.90;;;;;;5002745;28;20953;-72
2023/10/08 12:31:15;;;;;;;1.87;1.20;;;15.40;99.90;;;;;;4997638;28;20438;-73
2023/10/08 12:33:43;;;;;;;1.03;0.90;;;15.10;99.90;;;;;;4999498;28;20474;-74
2023/10/08 12:36:12;;;;;;;2.03;0.97;;;15.20;99.90;;;;;;5000390;28;20876;-72
2023/10/08 12:38:42;;;;;;;1.60;0.80;;;15.50;99.90;;;;;;5001423;28;20508;-72
2023/10/08 12:41:11;;;;;;;1.10;1.00;;;15.90;99.90;;;;;;4997771;28;20416;-74
2023/10/08 12:43:42;;;;;;;1.13;0.90;;;15.50;99.90;;;;;;4999843;28;20439;-74
2023/10/08 12:46:10;;;;;;;3.73;1.10;;;15.30;99.90;;;;;;5001517;28;20639;-74
2023/10/08 12:48:37;;;;;;;1.73;1.47;;;15.50;99.90;;;;;;5000545;28;20922;-72
2023/10/08 12:51:05;;;;;;;1.80;1.03;;;15.70;99.90;;;;;;4997915;28;20421;-74
2023/10/08 12:53:36;;;;;;;1.93;1.00;;;15.90;99.20;;;;;;4997306;28;20986;-75
2023/10/08 12:56:05;;;;;;;2.00;1.07;;;15.60;99.80;;;;;;4997810;28;20978;-76
2023/10/08 12:58:38;;;;;;;2.17;1.03;;;15.30;99.00;;;;;;4999536;28;20439;-73
2023/10/08 13:01:06;;;;;;;2.27;1.53;;;15.50;99.90;;;;;;4996370;28;20421;-73
2023/10/08 13:03:32;;;;;;;2.17;1.20;;;15.70;99.90;;;;;;4997320;28;21047;-73
2023/10/08 13:06:03;;;;;;;2.03;1.13;;;15.60;99.90;;;;;;4999536;28;20970;-74
2023/10/08 13:08:33;;;;;;;1.73;1.00;;;15.10;99.90;;;;;;4999388;28;20420;-74
2023/10/08 13:11:03;;;;;;;2.13;1.03;;;15.30;99.90;;;;;;4995228;28;20851;-74
2023/10/08 13:13:29;;;;;;;1.53;1.30;;;15.30;99.90;;;;;;4996722;28;20438;-73
2023/10/08 13:15:56;;;;;;;1.27;0.93;;;15.40;99.90;;;;;;4999117;28;20954;-73
2023/10/08 13:18:25;;;;;;;4.00;1.27;;;15.30;99.90;;;;;;4993083;28;20425;-74
2023/10/08 13:20:51;;;;;;;8.03;5.23;;;15.40;99.90;;;;;;5002690;28;20670;-69
2023/10/08 13:23:20;;;;;;;1.30;1.20;;;15.50;99.90;;;;;;4996333;28;20424;-72
2023/10/08 13:25:51;;;;;;;2.67;2.00;;;15.20;99.90;;;;;;4991955;28;20468;-71
2023/10/08 13:28:17;;;;;;;4.47;3.20;;;15.20;99.90;;;;;;4993780;28;20530;-68
2023/10/08 13:30:43;;;;;;;5.20;1.97;;;15.20;99.90;;;;;;4997753;28;20516;-72
2023/10/08 13:33:09;;;;;;;3.00;1.70;;;15.40;99.90;;;;;;4995804;28;20216;-73
2023/10/08 13:35:35;;;;;;;2.40;1.70;;;15.30;99.90;;;;;;4999676;28;20734;-72
2023/10/08 13:38:06;;;;;;;2.50;1.53;;;15.40;99.90;;;;;;5000053;28;20420;-72
2023/10/08 13:40:39;;;;;;;1.20;0.90;;;15.40;99.70;;;;;;4999045;28;20602;-73
2023/10/08 13:43:05;;;;;;;1.73;1.30;;;15.30;99.50;;;;;;4996094;28;20439;-72
2023/10/08 13:45:33;;;;;;;7.90;6.20;;;15.20;99.40;;;;;;4995973;28;20413;-73
2023/10/08 13:48:01;;;;;;;2.20;1.77;;;15.40;99.90;;;;;;5000542;28;20423;-73
2023/10/08 13:50:30;;;;;;;1.50;1.40;;;15.30;98.80;;;;;;5000316;28;20466;-71
2023/10/08 13:52:56;;;;;;;1.77;1.10;;;15.30;99.70;;;;;;4999381;28;20440;-71
2023/10/08 13:55:25;;;;;;;3.23;1.30;;;15.60;99.90;;;;;;4997848;28;20460;-70
2023/10/08 13:57:51;;;;;;;1.07;0.97;;;15.60;99.90;;;;;;4982768;28;20178;-72
2023/10/08 14:00:25;;;;;;;1.20;1.10;;;15.40;99.90;;;;;;4998524;28;20412;-73
2023/10/08 14:02:52;;;;;;;1.30;1.20;;;15.30;99.20;;;;;;4996539;28;20498;-72
2023/10/08 14:05:24;;;;;;;13.43;10.00;;;15.50;99.80;;;;;;4996594;28;20429;-72
2023/10/08 14:07:51;;;;;;;1.33;1.23;;;15.40;99.70;;;;;;4998398;28;20519;-71
2023/10/08 14:10:20;;;;;;;6.30;3.20;;;15.50;99.40;;;;;;4997789;28;20461;-70
2023/10/08 14:12:49;;;;;;;1.23;1.13;;;15.70;99.90;;;;;;4997444;28;20990;-71
2023/10/08 14:15:16;;;;;;;4.43;3.60;;;15.60;98.70;;;;;;4994450;28;20465;-72
2023/10/08 14:17:48;;;;;;;1.20;0.90;;;15.70;99.20;;;;;;4999535;28;20935;-71